sensor_id;sensor_type;location;lat;lon;timestamp;pressure;altitude;pressure_sealevel;temperature;humidity
80149;BME280;69473;42.426;26.644;2024-02-26T00:00:32;98747.03;;;10.11;72.22
80149;BME280;69473;42.426;26.644;2024-02-26T00:03:00;98746.16;;;10.09;72.47
80149;BME280;69473;42.426;26.644;2024-02-26T00:05:26;98751.34;;;10.09;72.70
80149;BME280;69473;42.426;26.644;2024-02-26T00:07:52;98742.72;;;10.13;72.23
80149;BME280;69473;42.426;26.644;2024-02-26T00:10:18;98751.31;;;10.12;71.74
80149;BME280;69473;42.426;26.644;2024-02-26T00:12:44;98747.03;;;10.12;71.90
80149;BME280;69473;42.426;26.644;2024-02-26T00:15:10;98745.28;;;10.16;71.22
80149;BME280;69473;42.426;26.644;2024-02-26T00:17:36;98745.22;;;10.24;71.54
80149;BME280;69473;42.426;26.644;2024-02-26T00:20:05;98737.50;;;10.28;70.78
80149;BME280;69473;42.426;26.644;2024-02-26T00:22:34;98740.91;;;10.30;69.67
80149;BME280;69473;42.426;26.644;2024-02-26T00:25:00;98740.06;;;10.31;69.18
80149;BME280;69473;42.426;26.644;2024-02-26T00:27:25;98734.00;;;10.29;68.99
80149;BME280;69473;42.426;26.644;2024-02-26T00:29:51;98736.56;;;10.38;68.41
80149;BME280;69473;42.426;26.644;2024-02-26T00:32:16;98728.81;;;10.35;68.94
80149;BME280;69473;42.426;26.644;2024-02-26T00:34:42;98727.09;;;10.31;68.31
80149;BME280;69473;42.426;26.644;2024-02-26T00:37:07;98731.38;;;10.34;68.39
80149;BME280;69473;42.426;26.644;2024-02-26T00:39:33;98733.97;;;10.35;67.63
80149;BME280;69473;42.426;26.644;2024-02-26T00:41:58;98725.34;;;10.33;68.18
80149;BME280;69473;42.426;26.644;2024-02-26T00:44:24;98718.47;;;10.29;67.42
80149;BME280;69473;42.426;26.644;2024-02-26T00:46:50;98716.78;;;10.19;67.42
80149;BME280;69473;42.426;26.644;2024-02-26T00:49:15;98715.03;;;10.21;67.91
80149;BME280;69473;42.426;26.644;2024-02-26T00:51:41;98715.03;;;10.21;67.71
80149;BME280;69473;42.426;26.644;2024-02-26T00:54:06;98715.00;;;10.24;67.07
80149;BME280;69473;42.426;26.644;2024-02-26T00:56:32;98702.94;;;10.29;66.99
80149;BME280;69473;42.426;26.644;2024-02-26T00:58:58;98714.16;;;10.25;67.86
80149;BME280;69473;42.426;26.644;2024-02-26T01:01:23;98702.94;;;10.23;66.76
80149;BME280;69473;42.426;26.644;2024-02-26T01:03:49;98701.31;;;10.07;67.63
80149;BME280;69473;42.426;26.644;2024-02-26T01:06:14;98697.88;;;10.02;68.24
80149;BME280;69473;42.426;26.644;2024-02-26T01:08:40;98694.34;;;10.15;68.02
80149;BME280;69473;42.426;26.644;2024-02-26T01:11:06;98689.13;;;10.21;67.36
80149;BME280;69473;42.426;26.644;2024-02-26T01:13:33;98692.59;;;10.23;66.91
80149;BME280;69473;42.426;26.644;2024-02-26T01:15:58;98685.69;;;10.25;67.06
80149;BME280;69473;42.426;26.644;2024-02-26T01:18:26;98687.41;;;10.29;67.62
80149;BME280;69473;42.426;26.644;2024-02-26T01:20:51;98689.06;;;10.39;67.70
80149;BME280;69473;42.426;26.644;2024-02-26T01:23:20;98677.75;;;10.51;67.95
80149;BME280;69473;42.426;26.644;2024-02-26T01:25:45;98679.44;;;10.57;67.61
80149;BME280;69473;42.426;26.644;2024-02-26T01:28:11;98674.25;;;10.60;67.99
80149;BME280;69473;42.426;26.644;2024-02-26T01:30:37;98667.31;;;10.60;67.43
80149;BME280;69473;42.426;26.644;2024-02-26T01:33:02;98669.94;;;10.56;67.42
80149;BME280;69473;42.426;26.644;2024-02-26T01:35:29;98672.56;;;10.51;67.46
80149;BME280;69473;42.426;26.644;2024-02-26T01:37:55;98668.22;;;10.55;66.76
80149;BME280;69473;42.426;26.644;2024-02-26T01:40:21;98664.75;;;10.56;66.55
80149;BME280;69473;42.426;26.644;2024-02-26T01:42:47;98668.16;;;10.64;66.64
80149;BME280;69473;42.426;26.644;2024-02-26T01:45:17;98664.66;;;10.68;65.95
80149;BME280;69473;42.426;26.644;2024-02-26T01:47:52;98661.19;;;10.72;65.89
80149;BME280;69473;42.426;26.644;2024-02-26T01:50:19;98655.13;;;10.70;65.60
80149;BME280;69473;42.426;26.644;2024-02-26T01:52:46;98650.88;;;10.66;65.96
80149;BME280;69473;42.426;26.644;2024-02-26T01:55:13;98646.53;;;10.67;66.05
80149;BME280;69473;42.426;26.644;2024-02-26T01:57:44;98660.34;;;10.69;65.77
80149;BME280;69473;42.426;26.644;2024-02-26T02:00:11;98653.44;;;10.68;65.39
80149;BME280;69473;42.426;26.644;2024-02-26T02:02:38;98650.81;;;10.72;65.85
80149;BME280;69473;42.426;26.644;2024-02-26T02:05:05;98655.09;;;10.76;65.29
80149;BME280;69473;42.426;26.644;2024-02-26T02:07:32;98652.47;;;10.79;64.46
80149;BME280;69473;42.426;26.644;2024-02-26T02:09:58;98655.88;;;10.84;64.86
80149;BME280;69473;42.426;26.644;2024-02-26T02:12:24;98658.47;;;10.84;64.66
80149;BME280;69473;42.426;26.644;2024-02-26T02:14:50;98655.00;;;10.84;64.68
80149;BME280;69473;42.426;26.644;2024-02-26T02:17:16;98655.94;;;10.77;64.92
80149;BME280;69473;42.426;26.644;2024-02-26T02:19:41;98653.41;;;10.71;65.39
80149;BME280;69473;42.426;26.644;2024-02-26T02:22:07;98653.47;;;10.66;65.93
80149;BME280;69473;42.426;26.644;2024-02-26T02:24:32;98647.34;;;10.73;65.19
80149;BME280;69473;42.426;26.644;2024-02-26T02:26:59;98648.19;;;10.75;65.23
80149;BME280;69473;42.426;26.644;2024-02-26T02:29:25;98648.19;;;10.75;64.79
80149;BME280;69473;42.426;26.644;2024-02-26T02:31:53;98648.13;;;10.80;64.63
80149;BME280;69473;42.426;26.644;2024-02-26T02:34:21;98649.78;;;10.89;63.65
80149;BME280;69473;42.426;26.644;2024-02-26T02:36:52;98643.66;;;10.96;62.75
80149;BME280;69473;42.426;26.644;2024-02-26T02:39:18;98647.13;;;10.95;62.91
80149;BME280;69473;42.426;26.644;2024-02-26T02:41:44;98647.13;;;10.93;62.55
80149;BME280;69473;42.426;26.644;2024-02-26T02:44:09;98642.00;;;10.92;62.89
80149;BME280;69473;42.426;26.644;2024-02-26T02:46:35;98641.94;;;10.98;62.30
80149;BME280;69473;42.426;26.644;2024-02-26T02:49:01;98644.50;;;10.99;62.48
80149;BME280;69473;42.426;26.644;2024-02-26T02:51:26;98652.25;;;11.01;62.81
80149;BME280;69473;42.426;26.644;2024-02-26T02:53:52;98652.19;;;11.07;62.51
80149;BME280;69473;42.426;26.644;2024-02-26T02:56:19;98638.34;;;11.08;61.84
80149;BME280;69473;42.426;26.644;2024-02-26T02:58:44;98647.00;;;11.10;61.80
80149;BME280;69473;42.426;26.644;2024-02-26T03:01:10;98646.94;;;11.16;61.21
80149;BME280;69473;42.426;26.644;2024-02-26T03:03:36;98643.47;;;11.14;61.47
80149;BME280;69473;42.426;26.644;2024-02-26T03:06:03;98645.25;;;11.12;60.97
80149;BME280;69473;42.426;26.644;2024-02-26T03:08:29;98649.56;;;11.13;61.01
80149;BME280;69473;42.426;26.644;2024-02-26T03:10:54;98645.25;;;11.10;61.19
80149;BME280;69473;42.426;26.644;2024-02-26T03:13:20;98641.91;;;11.01;61.37
80149;BME280;69473;42.426;26.644;2024-02-26T03:15:46;98641.09;;;10.93;61.21
80149;BME280;69473;42.426;26.644;2024-02-26T03:18:11;98654.25;;;10.73;62.66
80149;BME280;69473;42.426;26.644;2024-02-26T03:20:37;98652.81;;;10.36;64.07
80149;BME280;69473;42.426;26.644;2024-02-26T03:23:03;98656.53;;;9.92;66.39
80149;BME280;69473;42.426;26.644;2024-02-26T03:25:28;98670.53;;;9.48;68.57
80149;BME280;69473;42.426;26.644;2024-02-26T03:27:54;98663.69;;;9.29;69.61
80149;BME280;69473;42.426;26.644;2024-02-26T03:30:20;98663.75;;;9.14;71.89
80149;BME280;69473;42.426;26.644;2024-02-26T03:32:45;98663.75;;;9.08;71.36
80149;BME280;69473;42.426;26.644;2024-02-26T03:35:12;98656.84;;;9.13;72.46
80149;BME280;69473;42.426;26.644;2024-02-26T03:37:37;98646.53;;;9.13;71.96
80149;BME280;69473;42.426;26.644;2024-02-26T03:40:04;98649.94;;;9.18;71.75
80149;BME280;69473;42.426;26.644;2024-02-26T03:42:29;98648.94;;;9.53;70.76
80149;BME280;69473;42.426;26.644;2024-02-26T03:44:55;98649.66;;;9.85;68.94
80149;BME280;69473;42.426;26.644;2024-02-26T03:47:20;98648.72;;;10.00;68.16
80149;BME280;69473;42.426;26.644;2024-02-26T03:49:46;98639.22;;;10.04;67.69
80149;BME280;69473;42.426;26.644;2024-02-26T03:52:12;98643.44;;;10.15;67.55
80149;BME280;69473;42.426;26.644;2024-02-26T03:54:37;98625.34;;;10.14;67.14
80149;BME280;69473;42.426;26.644;2024-02-26T03:57:03;98637.41;;;10.15;68.44
80149;BME280;69473;42.426;26.644;2024-02-26T03:59:29;98635.72;;;10.11;68.68
80149;BME280;69473;42.426;26.644;2024-02-26T04:01:55;98628.84;;;10.07;68.68
80149;BME280;69473;42.426;26.644;2024-02-26T04:04:20;98623.69;;;10.01;68.66
80149;BME280;69473;42.426;26.644;2024-02-26T04:06:46;98633.22;;;9.95;68.85
80149;BME280;69473;42.426;26.644;2024-02-26T04:09:15;98621.16;;;9.90;69.30
80149;BME280;69473;42.426;26.644;2024-02-26T04:11:41;98627.19;;;9.93;68.19
80149;BME280;69473;42.426;26.644;2024-02-26T04:14:08;98623.78;;;9.88;67.97
80149;BME280;69473;42.426;26.644;2024-02-26T04:16:35;98624.63;;;9.87;68.40
80149;BME280;69473;42.426;26.644;2024-02-26T04:19:03;98624.63;;;9.87;68.61
80149;BME280;69473;42.426;26.644;2024-02-26T04:21:29;98622.94;;;9.85;68.07
80149;BME280;69473;42.426;26.644;2024-02-26T04:23:54;98624.66;;;9.83;68.25
80149;BME280;69473;42.426;26.644;2024-02-26T04:26:26;98623.91;;;9.61;68.30
80149;BME280;69473;42.426;26.644;2024-02-26T04:28:51;98632.59;;;9.47;69.58
80149;BME280;69473;42.426;26.644;2024-02-26T04:31:18;98636.94;;;9.41;70.84
80149;BME280;69473;42.426;26.644;2024-02-26T04:33:44;98636.09;;;9.28;69.99
80149;BME280;69473;42.426;26.644;2024-02-26T04:36:16;98637.03;;;9.13;70.14
80149;BME280;69473;42.426;26.644;2024-02-26T04:38:43;98638.75;;;9.11;71.47
80149;BME280;69473;42.426;26.644;2024-02-26T04:41:08;98635.31;;;9.03;71.22
80149;BME280;69473;42.426;26.644;2024-02-26T04:43:34;98639.66;;;9.04;70.94
80149;BME280;69473;42.426;26.644;2024-02-26T04:45:59;98639.63;;;9.09;71.37
80149;BME280;69473;42.426;26.644;2024-02-26T04:48:27;98643.94;;;9.13;69.95
80149;BME280;69473;42.426;26.644;2024-02-26T04:50:52;98645.66;;;9.06;70.42
80149;BME280;69473;42.426;26.644;2024-02-26T04:53:18;98649.97;;;9.02;71.54
80149;BME280;69473;42.426;26.644;2024-02-26T04:55:44;98648.25;;;9.08;70.94
80149;BME280;69473;42.426;26.644;2024-02-26T04:58:09;98649.97;;;9.09;70.37
80149;BME280;69473;42.426;26.644;2024-02-26T05:00:35;98646.53;;;9.13;69.36
80149;BME280;69473;42.426;26.644;2024-02-26T05:03:01;98641.34;;;9.16;69.64
80149;BME280;69473;42.426;26.644;2024-02-26T05:05:27;98646.47;;;9.25;70.01
80149;BME280;69473;42.426;26.644;2024-02-26T05:07:52;98646.44;;;9.34;68.16
80149;BME280;69473;42.426;26.644;2024-02-26T05:10:18;98647.28;;;9.47;69.86
80149;BME280;69473;42.426;26.644;2024-02-26T05:12:43;98648.97;;;9.51;70.63
80149;BME280;69473;42.426;26.644;2024-02-26T05:15:09;98652.44;;;9.47;73.12
80149;BME280;69473;42.426;26.644;2024-02-26T05:17:35;98648.16;;;9.41;73.95
80149;BME280;69473;42.426;26.644;2024-02-26T05:20:00;98639.53;;;9.33;75.08
80149;BME280;69473;42.426;26.644;2024-02-26T05:22:26;98649.91;;;9.30;75.89
80149;BME280;69473;42.426;26.644;2024-02-26T05:24:51;98653.34;;;9.24;76.90
80149;BME280;69473;42.426;26.644;2024-02-26T05:27:17;98649.91;;;9.30;76.21
80149;BME280;69473;42.426;26.644;2024-02-26T05:29:43;98650.78;;;9.21;76.99
80149;BME280;69473;42.426;26.644;2024-02-26T05:32:08;98659.38;;;9.25;78.21
80149;BME280;69473;42.426;26.644;2024-02-26T05:34:34;98661.13;;;9.21;79.27
80149;BME280;69473;42.426;26.644;2024-02-26T05:36:59;98668.91;;;9.20;78.93
80149;BME280;69473;42.426;26.644;2024-02-26T05:39:25;98663.72;;;9.26;79.61
80149;BME280;69473;42.426;26.644;2024-02-26T05:41:50;98663.72;;;9.17;79.63
80149;BME280;69473;42.426;26.644;2024-02-26T05:44:16;98658.53;;;9.29;79.23
80149;BME280;69473;42.426;26.644;2024-02-26T05:46:42;98664.59;;;9.20;79.71
80149;BME280;69473;42.426;26.644;2024-02-26T05:49:07;98669.72;;;9.25;81.11
80149;BME280;69473;42.426;26.644;2024-02-26T05:51:33;98668.88;;;9.29;79.45
80149;BME280;69473;42.426;26.644;2024-02-26T05:53:58;98677.47;;;9.31;80.20
80149;BME280;69473;42.426;26.644;2024-02-26T05:56:24;98679.22;;;9.23;80.04
80149;BME280;69473;42.426;26.644;2024-02-26T05:58:50;98689.56;;;9.26;81.28
80149;BME280;69473;42.426;26.644;2024-02-26T06:01:17;98687.84;;;9.23;82.08
80149;BME280;69473;42.426;26.644;2024-02-26T06:03:43;98696.44;;;9.24;82.36
80149;BME280;69473;42.426;26.644;2024-02-26T06:06:10;98698.19;;;9.19;82.49
80149;BME280;69473;42.426;26.644;2024-02-26T06:08:35;98694.75;;;9.20;82.47
80149;BME280;69473;42.426;26.644;2024-02-26T06:11:07;98699.91;;;9.20;83.14
80149;BME280;69473;42.426;26.644;2024-02-26T06:13:34;98705.09;;;9.23;83.25
80149;BME280;69473;42.426;26.644;2024-02-26T06:16:00;98706.81;;;9.21;82.01
80149;BME280;69473;42.426;26.644;2024-02-26T06:18:26;98699.94;;;9.14;83.70
80149;BME280;69473;42.426;26.644;2024-02-26T06:20:51;98701.63;;;9.15;84.00
80149;BME280;69473;42.426;26.644;2024-02-26T06:23:17;98704.19;;;9.39;83.35
80149;BME280;69473;42.426;26.644;2024-02-26T06:25:43;98695.53;;;9.40;82.12
80149;BME280;69473;42.426;26.644;2024-02-26T06:28:08;98706.72;;;9.52;81.66
80149;BME280;69473;42.426;26.644;2024-02-26T06:30:34;98703.22;;;9.62;81.10
80149;BME280;69473;42.426;26.644;2024-02-26T06:33:00;98710.09;;;9.78;80.61
80149;BME280;69473;42.426;26.644;2024-02-26T06:35:26;98714.31;;;9.93;79.95
80149;BME280;69473;42.426;26.644;2024-02-26T06:37:52;98707.53;;;9.72;81.31
80149;BME280;69473;42.426;26.644;2024-02-26T06:40:21;98717.00;;;9.73;81.44
80149;BME280;69473;42.426;26.644;2024-02-26T06:42:47;98706.63;;;9.82;80.44
80149;BME280;69473;42.426;26.644;2024-02-26T06:45:12;98706.53;;;10.01;79.86
80149;BME280;69473;42.426;26.644;2024-02-26T06:47:38;98707.31;;;10.13;80.51
80149;BME280;69473;42.426;26.644;2024-02-26T06:50:04;98706.44;;;10.16;80.32
80149;BME280;69473;42.426;26.644;2024-02-26T06:52:30;98698.53;;;10.45;78.25
80149;BME280;69473;42.426;26.644;2024-02-26T06:54:56;98692.38;;;10.60;78.39
80149;BME280;69473;42.426;26.644;2024-02-26T06:57:21;98704.47;;;10.58;77.58
80149;BME280;69473;42.426;26.644;2024-02-26T06:59:47;98693.84;;;10.87;76.81
80149;BME280;69473;42.426;26.644;2024-02-26T07:02:14;98698.97;;;10.96;76.02
80149;BME280;69473;42.426;26.644;2024-02-26T07:04:39;98705.88;;;10.96;76.15
80149;BME280;69473;42.426;26.644;2024-02-26T07:07:07;98700.66;;;10.99;76.33
80149;BME280;69473;42.426;26.644;2024-02-26T07:09:32;98695.00;;;11.48;74.53
80149;BME280;69473;42.426;26.644;2024-02-26T07:11:58;98706.69;;;11.86;72.57
80149;BME280;69473;42.426;26.644;2024-02-26T07:14:23;98697.88;;;11.96;71.26
80149;BME280;69473;42.426;26.644;2024-02-26T07:16:50;98701.03;;;12.19;70.29
80149;BME280;69473;42.426;26.644;2024-02-26T07:19:16;98691.97;;;12.48;68.82
80149;BME280;69473;42.426;26.644;2024-02-26T07:21:41;98692.81;;;12.48;69.19
80149;BME280;69473;42.426;26.644;2024-02-26T07:24:07;98692.97;;;12.92;67.96
80149;BME280;69473;42.426;26.644;2024-02-26T07:26:33;98697.16;;;13.50;63.98
80149;BME280;69473;42.426;26.644;2024-02-26T07:28:59;98696.03;;;14.05;62.73
80149;BME280;69473;42.426;26.644;2024-02-26T07:31:25;98695.31;;;14.39;60.35
80149;BME280;69473;42.426;26.644;2024-02-26T07:33:51;98689.97;;;14.42;60.94
80149;BME280;69473;42.426;26.644;2024-02-26T07:36:17;98687.09;;;14.56;60.51
80149;BME280;69473;42.426;26.644;2024-02-26T07:38:42;98690.53;;;14.58;59.91
80149;BME280;69473;42.426;26.644;2024-02-26T07:41:09;98689.97;;;14.42;60.99
80149;BME280;69473;42.426;26.644;2024-02-26T07:43:34;98693.81;;;15.00;57.76
80149;BME280;69473;42.426;26.644;2024-02-26T07:46:00;98688.38;;;15.10;56.70
80149;BME280;69473;42.426;26.644;2024-02-26T07:48:25;98689.91;;;15.50;55.24
80149;BME280;69473;42.426;26.644;2024-02-26T07:50:51;98694.25;;;15.83;55.33
80149;BME280;69473;42.426;26.644;2024-02-26T07:53:17;98690.16;;;15.73;54.04
80149;BME280;69473;42.426;26.644;2024-02-26T07:55:42;98691.03;;;16.31;51.77
80149;BME280;69473;42.426;26.644;2024-02-26T07:58:08;98689.38;;;16.57;51.97
80149;BME280;69473;42.426;26.644;2024-02-26T08:00:33;98690.44;;;16.79;50.66
80149;BME280;69473;42.426;26.644;2024-02-26T08:02:59;98688.50;;;16.56;48.70
80149;BME280;69473;42.426;26.644;2024-02-26T08:05:25;98689.44;;;15.98;48.64
80149;BME280;69473;42.426;26.644;2024-02-26T08:07:51;98688.75;;;15.60;51.08
80149;BME280;69473;42.426;26.644;2024-02-26T08:10:17;98695.69;;;15.30;50.80
80149;BME280;69473;42.426;26.644;2024-02-26T08:12:42;98694.53;;;15.07;52.37
80149;BME280;69473;42.426;26.644;2024-02-26T08:15:08;98687.22;;;14.87;56.25
80149;BME280;69473;42.426;26.644;2024-02-26T08:17:36;98693.97;;;14.96;56.94
80149;BME280;69473;42.426;26.644;2024-02-26T08:20:02;98702.56;;;15.96;55.50
80149;BME280;69473;42.426;26.644;2024-02-26T08:22:28;98690.19;;;17.12;52.09
80149;BME280;69473;42.426;26.644;2024-02-26T08:24:53;98689.97;;;18.39;47.25
80149;BME280;69473;42.426;26.644;2024-02-26T08:27:19;98689.22;;;18.13;46.91
80149;BME280;69473;42.426;26.644;2024-02-26T08:29:44;98695.25;;;17.92;50.41
80149;BME280;69473;42.426;26.644;2024-02-26T08:32:10;98695.53;;;17.59;50.63
80149;BME280;69473;42.426;26.644;2024-02-26T08:34:35;98693.34;;;17.47;50.88
80149;BME280;69473;42.426;26.644;2024-02-26T08:37:01;98677.97;;;17.38;50.63
80149;BME280;69473;42.426;26.644;2024-02-26T08:39:26;98686.25;;;17.99;47.30
80149;BME280;69473;42.426;26.644;2024-02-26T08:41:52;98686.69;;;19.80;43.41
80149;BME280;69473;42.426;26.644;2024-02-26T08:44:18;98674.28;;;20.94;40.26
80149;BME280;69473;42.426;26.644;2024-02-26T08:46:43;98674.88;;;21.84;38.03
80149;BME280;69473;42.426;26.644;2024-02-26T08:49:11;98664.84;;;23.45;36.43
80149;BME280;69473;42.426;26.644;2024-02-26T08:51:42;98661.66;;;24.80;33.87
80149;BME280;69473;42.426;26.644;2024-02-26T08:54:08;98663.50;;;25.83;32.46
80149;BME280;69473;42.426;26.644;2024-02-26T08:56:33;98654.06;;;27.12;30.13
80149;BME280;69473;42.426;26.644;2024-02-26T08:58:59;98652.75;;;27.86;27.60
80149;BME280;69473;42.426;26.644;2024-02-26T09:01:29;98657.59;;;28.04;28.12
80149;BME280;69473;42.426;26.644;2024-02-26T09:03:55;98656.13;;;28.00;28.07
80149;BME280;69473;42.426;26.644;2024-02-26T09:06:22;98648.00;;;28.67;27.90
80149;BME280;69473;42.426;26.644;2024-02-26T09:08:47;98647.81;;;27.24;28.20
80149;BME280;69473;42.426;26.644;2024-02-26T09:11:13;98644.66;;;28.54;27.47
80149;BME280;69473;42.426;26.644;2024-02-26T09:13:39;98644.81;;;28.73;27.27
80149;BME280;69473;42.426;26.644;2024-02-26T09:16:05;98644.25;;;27.70;28.22
80149;BME280;69473;42.426;26.644;2024-02-26T09:18:31;98644.59;;;25.24;31.78
80149;BME280;69473;42.426;26.644;2024-02-26T09:20:56;98642.47;;;23.36;35.02
80149;BME280;69473;42.426;26.644;2024-02-26T09:23:22;98645.81;;;21.18;37.13
80149;BME280;69473;42.426;26.644;2024-02-26T09:25:48;98652.25;;;20.41;40.31
80149;BME280;69473;42.426;26.644;2024-02-26T09:28:13;98662.22;;;20.71;39.12
80149;BME280;69473;42.426;26.644;2024-02-26T09:30:42;98666.75;;;21.56;36.89
80149;BME280;69473;42.426;26.644;2024-02-26T09:33:07;98660.13;;;21.80;36.27
80149;BME280;69473;42.426;26.644;2024-02-26T09:35:33;98665.34;;;21.49;37.28
80149;BME280;69473;42.426;26.644;2024-02-26T09:37:59;98658.16;;;22.17;35.93
80149;BME280;69473;42.426;26.644;2024-02-26T09:40:24;98649.44;;;23.09;34.51
80149;BME280;69473;42.426;26.644;2024-02-26T09:43:00;98655.84;;;23.78;33.37
80149;BME280;69473;42.426;26.644;2024-02-26T09:45:28;98637.47;;;23.60;33.08
80149;BME280;69473;42.426;26.644;2024-02-26T09:47:55;98652.63;;;21.39;35.92
80149;BME280;69473;42.426;26.644;2024-02-26T09:50:22;98651.91;;;19.13;39.89
80149;BME280;69473;42.426;26.644;2024-02-26T09:52:48;98653.09;;;17.98;41.40
80149;BME280;69473;42.426;26.644;2024-02-26T09:55:15;98650.41;;;17.27;43.21
80149;BME280;69473;42.426;26.644;2024-02-26T09:57:45;98643.78;;;16.92;45.41
80149;BME280;69473;42.426;26.644;2024-02-26T10:00:17;98643.69;;;16.40;45.36
80149;BME280;69473;42.426;26.644;2024-02-26T10:02:46;98640.97;;;15.87;45.83
80149;BME280;69473;42.426;26.644;2024-02-26T10:05:18;98632.69;;;15.73;46.73
80149;BME280;69473;42.426;26.644;2024-02-26T10:07:47;98642.84;;;15.53;47.74
80149;BME280;69473;42.426;26.644;2024-02-26T10:10:17;98633.97;;;15.58;46.60
80149;BME280;69473;42.426;26.644;2024-02-26T10:12:43;98640.59;;;15.72;43.61
80149;BME280;69473;42.426;26.644;2024-02-26T10:15:09;98635.56;;;15.64;45.66
80149;BME280;69473;42.426;26.644;2024-02-26T10:17:35;98635.34;;;15.40;46.54
80149;BME280;69473;42.426;26.644;2024-02-26T10:20:17;98626.00;;;15.63;47.03
80149;BME280;69473;42.426;26.644;2024-02-26T10:22:49;98620.19;;;15.84;45.83
80149;BME280;69473;42.426;26.644;2024-02-26T10:25:15;98620.66;;;15.97;46.20
80149;BME280;69473;42.426;26.644;2024-02-26T10:27:41;98614.28;;;16.06;46.23
80149;BME280;69473;42.426;26.644;2024-02-26T10:30:29;98619.63;;;16.03;46.86
80149;BME280;69473;42.426;26.644;2024-02-26T10:33:18;98623.44;;;15.92;50.99
80149;BME280;69473;42.426;26.644;2024-02-26T10:35:48;98623.88;;;15.77;53.99
80149;BME280;69473;42.426;26.644;2024-02-26T10:38:13;98610.63;;;15.83;53.39
80149;BME280;69473;42.426;26.644;2024-02-26T10:40:42;98602.25;;;16.02;51.75
80149;BME280;69473;42.426;26.644;2024-02-26T10:43:07;98608.41;;;16.27;50.47
80149;BME280;69473;42.426;26.644;2024-02-26T10:45:33;98606.50;;;16.32;49.92
80149;BME280;69473;42.426;26.644;2024-02-26T10:48:00;98607.00;;;16.44;49.00
80149;BME280;69473;42.426;26.644;2024-02-26T10:50:26;98602.88;;;16.36;49.82
80149;BME280;69473;42.426;26.644;2024-02-26T10:52:53;98601.94;;;16.39;51.42
80149;BME280;69473;42.426;26.644;2024-02-26T10:55:22;98597.84;;;16.30;51.68
80149;BME280;69473;42.426;26.644;2024-02-26T10:57:52;98593.00;;;16.45;50.48
80149;BME280;69473;42.426;26.644;2024-02-26T11:00:18;98601.66;;;16.47;48.61
80149;BME280;69473;42.426;26.644;2024-02-26T11:02:45;98604.78;;;16.31;48.46
80149;BME280;69473;42.426;26.644;2024-02-26T11:05:12;98602.16;;;16.31;50.07
80149;BME280;69473;42.426;26.644;2024-02-26T11:07:38;98591.50;;;16.37;49.11
80149;BME280;69473;42.426;26.644;2024-02-26T11:10:07;98587.75;;;16.46;46.01
80149;BME280;69473;42.426;26.644;2024-02-26T11:12:34;98595.22;;;16.57;46.37
80149;BME280;69473;42.426;26.644;2024-02-26T11:15:03;98582.34;;;16.77;44.67
80149;BME280;69473;42.426;26.644;2024-02-26T11:17:29;98588.75;;;16.94;45.25
80149;BME280;69473;42.426;26.644;2024-02-26T11:19:59;98584.78;;;17.07;45.06
80149;BME280;69473;42.426;26.644;2024-02-26T11:22:28;98586.84;;;16.99;44.84
80149;BME280;69473;42.426;26.644;2024-02-26T11:24:56;98576.75;;;17.37;44.27
80149;BME280;69473;42.426;26.644;2024-02-26T11:27:40;98578.78;;;17.28;44.90
80149;BME280;69473;42.426;26.644;2024-02-26T11:30:13;98581.28;;;17.31;46.39
80149;BME280;69473;42.426;26.644;2024-02-26T11:32:39;98571.06;;;17.49;45.02
80149;BME280;69473;42.426;26.644;2024-02-26T11:35:05;98577.44;;;17.42;46.78
80149;BME280;69473;42.426;26.644;2024-02-26T11:37:33;98579.84;;;17.48;46.93
80149;BME280;69473;42.426;26.644;2024-02-26T11:39:59;98579.25;;;17.40;47.18
80149;BME280;69473;42.426;26.644;2024-02-26T11:42:26;98575.50;;;17.70;47.16
80149;BME280;69473;42.426;26.644;2024-02-26T11:44:52;98570.25;;;17.23;49.06
80149;BME280;69473;42.426;26.644;2024-02-26T11:47:22;98575.63;;;17.20;50.02
80149;BME280;69473;42.426;26.644;2024-02-26T11:49:48;98567.09;;;17.39;49.17
80149;BME280;69473;42.426;26.644;2024-02-26T11:52:15;98570.50;;;17.17;50.30
80149;BME280;69473;42.426;26.644;2024-02-26T11:54:49;98565.47;;;17.35;49.51
80149;BME280;69473;42.426;26.644;2024-02-26T11:59:52;98563.41;;;17.19;51.21
80149;BME280;69473;42.426;26.644;2024-02-26T12:05:20;98542.34;;;17.22;49.16
80149;BME280;69473;42.426;26.644;2024-02-26T12:07:46;98551.28;;;17.40;50.29
80149;BME280;69473;42.426;26.644;2024-02-26T12:15:41;98541.00;;;17.36;46.21
80149;BME280;69473;42.426;26.644;2024-02-26T12:18:12;98533.53;;;17.48;45.81
80149;BME280;69473;42.426;26.644;2024-02-26T12:20:41;98542.94;;;17.54;46.60
80149;BME280;69473;42.426;26.644;2024-02-26T12:23:06;98543.28;;;17.45;46.50
80149;BME280;69473;42.426;26.644;2024-02-26T12:25:33;98542.81;;;17.57;46.58
80149;BME280;69473;42.426;26.644;2024-02-26T12:27:59;98538.28;;;17.39;47.33
80149;BME280;69473;42.426;26.644;2024-02-26T12:30:26;98540.78;;;17.18;47.21
80149;BME280;69473;42.426;26.644;2024-02-26T12:32:53;98537.34;;;17.16;48.72
80149;BME280;69473;42.426;26.644;2024-02-26T12:35:23;98542.81;;;17.10;47.92
80149;BME280;69473;42.426;26.644;2024-02-26T12:37:50;98549.13;;;17.04;47.50
80149;BME280;69473;42.426;26.644;2024-02-26T12:40:17;98550.44;;;16.93;47.12
80149;BME280;69473;42.426;26.644;2024-02-26T12:42:43;98551.88;;;16.76;47.36
80149;BME280;69473;42.426;26.644;2024-02-26T12:45:10;98556.47;;;16.68;46.91
80149;BME280;69473;42.426;26.644;2024-02-26T12:50:03;98550.88;;;16.27;48.15
80149;BME280;69473;42.426;26.644;2024-02-26T12:52:32;98553.19;;;16.10;48.66
80149;BME280;69473;42.426;26.644;2024-02-26T12:54:58;98544.25;;;16.17;49.70
80149;BME280;69473;42.426;26.644;2024-02-26T12:57:24;98563.13;;;16.25;49.24
80149;BME280;69473;42.426;26.644;2024-02-26T12:59:51;98561.25;;;16.30;49.14
80149;BME280;69473;42.426;26.644;2024-02-26T13:02:16;98547.34;;;16.28;48.81